<?xml version="1.0" encoding="UTF-8" standalone="no" ?>
<gpx xmlns="http://www.topografix.com/GPX/1/1" xmlns:xsi="http://www.w3.org/2001/XMLSchema-instance" xsi:schemaLocation="http://www.topografix.com/GPX/1/1 http://www.topografix.com/GPX/1/1/gpx.xsd" version="1.1" creator="VisuGPX - https://www.visugpx.com">
  <metadata>
    <name>promenade halage</name>
    <desc><![CDATA[promenade halage]]></desc>
  </metadata>
  <wpt lat="38.85555" lon="-94.79902">
    <ele>3.01</ele>
    <name><![CDATA[GARMIN]]></name>
  </wpt>
  <wpt lat="50.98288" lon="-1.4639">
    <ele>3.01</ele>
    <name><![CDATA[GRMEUR]]></name>
  </wpt>
  <wpt lat="25.06178" lon="121.64027">
    <ele>3.01</ele>
    <name><![CDATA[GRMTWN]]></name>
  </wpt>
  <wpt lat="47.87632" lon="-3.01188">
    <ele>40.02</ele>
    <name><![CDATA[H]]></name>
  </wpt>
  <trk>
    <name><![CDATA[ACTIVE LOG: 08 MAI 2012 14:20]]></name>
    <trkseg>
      <trkpt lat="47.80373" lon="-3.28026">
        <ele>-4.19</ele>
        <time>2012-05-08T13:20:52Z</time>
      </trkpt>
      <trkpt lat="47.80374" lon="-3.2802">
        <ele>1.58</ele>
        <time>2012-05-08T13:21:08Z</time>
      </trkpt>
      <trkpt lat="47.80374" lon="-3.28022">
        <ele>-1.79</ele>
        <time>2012-05-08T13:21:26Z</time>
      </trkpt>
      <trkpt lat="47.80389" lon="-3.28054">
        <ele>-2.27</ele>
        <time>2012-05-08T13:21:36Z</time>
      </trkpt>
      <trkpt lat="47.80398" lon="-3.28072">
        <ele>-2.27</ele>
        <time>2012-05-08T13:21:42Z</time>
      </trkpt>
      <trkpt lat="47.80404" lon="-3.28084">
        <ele>-0.34</ele>
        <time>2012-05-08T13:22:01Z</time>
      </trkpt>
      <trkpt lat="47.80411" lon="-3.28098">
        <ele>2.54</ele>
        <time>2012-05-08T13:22:05Z</time>
      </trkpt>
      <trkpt lat="47.80417" lon="-3.28134">
        <ele>2.06</ele>
        <time>2012-05-08T13:22:14Z</time>
      </trkpt>
      <trkpt lat="47.8047" lon="-3.28208">
        <ele>0.14</ele>
        <time>2012-05-08T13:22:27Z</time>
      </trkpt>
      <trkpt lat="47.8049" lon="-3.28222">
        <ele>-0.34</ele>
        <time>2012-05-08T13:22:31Z</time>
      </trkpt>
      <trkpt lat="47.80519" lon="-3.28228">
        <ele>-0.34</ele>
        <time>2012-05-08T13:22:36Z</time>
      </trkpt>
      <trkpt lat="47.80542" lon="-3.28223">
        <ele>-0.34</ele>
        <time>2012-05-08T13:22:40Z</time>
      </trkpt>
      <trkpt lat="47.80581" lon="-3.28201">
        <ele>-0.34</ele>
        <time>2012-05-08T13:22:47Z</time>
      </trkpt>
      <trkpt lat="47.8061" lon="-3.2817">
        <ele>-0.34</ele>
        <time>2012-05-08T13:22:53Z</time>
      </trkpt>
      <trkpt lat="47.80639" lon="-3.2814">
        <ele>0.14</ele>
        <time>2012-05-08T13:22:59Z</time>
      </trkpt>
      <trkpt lat="47.80648" lon="-3.28128">
        <ele>0.14</ele>
        <time>2012-05-08T13:23:01Z</time>
      </trkpt>
      <trkpt lat="47.80661" lon="-3.28118">
        <ele>0.62</ele>
        <time>2012-05-08T13:23:04Z</time>
      </trkpt>
      <trkpt lat="47.80674" lon="-3.28107">
        <ele>2.54</ele>
        <time>2012-05-08T13:23:08Z</time>
      </trkpt>
      <trkpt lat="47.80684" lon="-3.28087">
        <ele>3.02</ele>
        <time>2012-05-08T13:23:11Z</time>
      </trkpt>
      <trkpt lat="47.80701" lon="-3.28064">
        <ele>4.94</ele>
        <time>2012-05-08T13:23:17Z</time>
      </trkpt>
      <trkpt lat="47.80757" lon="-3.28021">
        <ele>8.79</ele>
        <time>2012-05-08T13:23:28Z</time>
      </trkpt>
      <trkpt lat="47.80824" lon="-3.27949">
        <ele>13.12</ele>
        <time>2012-05-08T13:23:41Z</time>
      </trkpt>
      <trkpt lat="47.80836" lon="-3.27937">
        <ele>14.08</ele>
        <time>2012-05-08T13:23:43Z</time>
      </trkpt>
      <trkpt lat="47.80884" lon="-3.27903">
        <ele>9.75</ele>
        <time>2012-05-08T13:23:51Z</time>
      </trkpt>
      <trkpt lat="47.80924" lon="-3.27904">
        <ele>9.75</ele>
        <time>2012-05-08T13:23:57Z</time>
      </trkpt>
      <trkpt lat="47.80997" lon="-3.27963">
        <ele>5.91</ele>
        <time>2012-05-08T13:24:10Z</time>
      </trkpt>
      <trkpt lat="47.81027" lon="-3.27989">
        <ele>5.91</ele>
        <time>2012-05-08T13:24:15Z</time>
      </trkpt>
      <trkpt lat="47.81091" lon="-3.28048">
        <ele>3.98</ele>
        <time>2012-05-08T13:24:26Z</time>
      </trkpt>
      <trkpt lat="47.81148" lon="-3.28115">
        <ele>1.1</ele>
        <time>2012-05-08T13:24:36Z</time>
      </trkpt>
      <trkpt lat="47.81212" lon="-3.28169">
        <ele>2.06</ele>
        <time>2012-05-08T13:24:46Z</time>
      </trkpt>
      <trkpt lat="47.81289" lon="-3.28228">
        <ele>2.06</ele>
        <time>2012-05-08T13:24:58Z</time>
      </trkpt>
      <trkpt lat="47.81341" lon="-3.28265">
        <ele>1.58</ele>
        <time>2012-05-08T13:25:06Z</time>
      </trkpt>
      <trkpt lat="47.81431" lon="-3.28328">
        <ele>0.14</ele>
        <time>2012-05-08T13:25:20Z</time>
      </trkpt>
      <trkpt lat="47.81438" lon="-3.28331">
        <ele>0.14</ele>
        <time>2012-05-08T13:25:21Z</time>
      </trkpt>
      <trkpt lat="47.81486" lon="-3.28343">
        <ele>1.1</ele>
        <time>2012-05-08T13:25:28Z</time>
      </trkpt>
      <trkpt lat="47.81522" lon="-3.28341">
        <ele>2.06</ele>
        <time>2012-05-08T13:25:33Z</time>
      </trkpt>
      <trkpt lat="47.81549" lon="-3.28332">
        <ele>2.54</ele>
        <time>2012-05-08T13:25:37Z</time>
      </trkpt>
      <trkpt lat="47.81562" lon="-3.28327">
        <ele>0.14</ele>
        <time>2012-05-08T13:25:39Z</time>
      </trkpt>
      <trkpt lat="47.81629" lon="-3.28281">
        <ele>-1.3</ele>
        <time>2012-05-08T13:25:50Z</time>
      </trkpt>
      <trkpt lat="47.81642" lon="-3.28275">
        <ele>-0.82</ele>
        <time>2012-05-08T13:25:52Z</time>
      </trkpt>
      <trkpt lat="47.81655" lon="-3.28268">
        <ele>-0.34</ele>
        <time>2012-05-08T13:25:54Z</time>
      </trkpt>
      <trkpt lat="47.81671" lon="-3.2825">
        <ele>-0.34</ele>
        <time>2012-05-08T13:25:57Z</time>
      </trkpt>
      <trkpt lat="47.81699" lon="-3.2823">
        <ele>-0.82</ele>
        <time>2012-05-08T13:26:04Z</time>
      </trkpt>
      <trkpt lat="47.81731" lon="-3.28206">
        <ele>0.14</ele>
        <time>2012-05-08T13:26:11Z</time>
      </trkpt>
      <trkpt lat="47.81749" lon="-3.28187">
        <ele>0.14</ele>
        <time>2012-05-08T13:26:15Z</time>
      </trkpt>
      <trkpt lat="47.81798" lon="-3.28125">
        <ele>1.58</ele>
        <time>2012-05-08T13:26:25Z</time>
      </trkpt>
      <trkpt lat="47.81803" lon="-3.28119">
        <ele>2.06</ele>
        <time>2012-05-08T13:26:26Z</time>
      </trkpt>
      <trkpt lat="47.81864" lon="-3.28039">
        <ele>2.54</ele>
        <time>2012-05-08T13:26:38Z</time>
      </trkpt>
      <trkpt lat="47.81879" lon="-3.28017">
        <ele>2.54</ele>
        <time>2012-05-08T13:26:41Z</time>
      </trkpt>
      <trkpt lat="47.81896" lon="-3.27985">
        <ele>2.54</ele>
        <time>2012-05-08T13:26:45Z</time>
      </trkpt>
      <trkpt lat="47.8191" lon="-3.27964">
        <ele>2.06</ele>
        <time>2012-05-08T13:26:48Z</time>
      </trkpt>
      <trkpt lat="47.81943" lon="-3.27897">
        <ele>1.58</ele>
        <time>2012-05-08T13:26:56Z</time>
      </trkpt>
      <trkpt lat="47.81988" lon="-3.27796">
        <ele>2.54</ele>
        <time>2012-05-08T13:27:08Z</time>
      </trkpt>
      <trkpt lat="47.82017" lon="-3.27746">
        <ele>3.02</ele>
        <time>2012-05-08T13:27:14Z</time>
      </trkpt>
      <trkpt lat="47.82097" lon="-3.27658">
        <ele>3.02</ele>
        <time>2012-05-08T13:27:27Z</time>
      </trkpt>
      <trkpt lat="47.82117" lon="-3.27638">
        <ele>1.58</ele>
        <time>2012-05-08T13:27:30Z</time>
      </trkpt>
      <trkpt lat="47.82148" lon="-3.276">
        <ele>0.62</ele>
        <time>2012-05-08T13:27:35Z</time>
      </trkpt>
      <trkpt lat="47.82169" lon="-3.27553">
        <ele>0.14</ele>
        <time>2012-05-08T13:27:40Z</time>
      </trkpt>
      <trkpt lat="47.82179" lon="-3.27488">
        <ele>0.14</ele>
        <time>2012-05-08T13:27:46Z</time>
      </trkpt>
      <trkpt lat="47.82166" lon="-3.27382">
        <ele>3.5</ele>
        <time>2012-05-08T13:27:57Z</time>
      </trkpt>
      <trkpt lat="47.82162" lon="-3.27362">
        <ele>3.5</ele>
        <time>2012-05-08T13:27:59Z</time>
      </trkpt>
      <trkpt lat="47.82155" lon="-3.27331">
        <ele>3.02</ele>
        <time>2012-05-08T13:28:02Z</time>
      </trkpt>
      <trkpt lat="47.82138" lon="-3.27265">
        <ele>2.06</ele>
        <time>2012-05-08T13:28:08Z</time>
      </trkpt>
      <trkpt lat="47.82108" lon="-3.27119">
        <ele>1.58</ele>
        <time>2012-05-08T13:28:21Z</time>
      </trkpt>
      <trkpt lat="47.821" lon="-3.26987">
        <ele>1.1</ele>
        <time>2012-05-08T13:28:33Z</time>
      </trkpt>
      <trkpt lat="47.82098" lon="-3.26915">
        <ele>1.1</ele>
        <time>2012-05-08T13:28:41Z</time>
      </trkpt>
      <trkpt lat="47.82098" lon="-3.26882">
        <ele>1.58</ele>
        <time>2012-05-08T13:28:46Z</time>
      </trkpt>
      <trkpt lat="47.82095" lon="-3.26829">
        <ele>1.58</ele>
        <time>2012-05-08T13:28:53Z</time>
      </trkpt>
      <trkpt lat="47.82094" lon="-3.26689">
        <ele>3.02</ele>
        <time>2012-05-08T13:29:08Z</time>
      </trkpt>
      <trkpt lat="47.82093" lon="-3.2667">
        <ele>2.54</ele>
        <time>2012-05-08T13:29:10Z</time>
      </trkpt>
      <trkpt lat="47.82092" lon="-3.2661">
        <ele>3.02</ele>
        <time>2012-05-08T13:29:16Z</time>
      </trkpt>
      <trkpt lat="47.82107" lon="-3.26461">
        <ele>3.5</ele>
        <time>2012-05-08T13:29:31Z</time>
      </trkpt>
      <trkpt lat="47.82121" lon="-3.26334">
        <ele>2.54</ele>
        <time>2012-05-08T13:29:44Z</time>
      </trkpt>
      <trkpt lat="47.82125" lon="-3.26182">
        <ele>5.91</ele>
        <time>2012-05-08T13:29:59Z</time>
      </trkpt>
      <trkpt lat="47.82108" lon="-3.2606">
        <ele>5.42</ele>
        <time>2012-05-08T13:30:11Z</time>
      </trkpt>
      <trkpt lat="47.82074" lon="-3.25943">
        <ele>5.42</ele>
        <time>2012-05-08T13:30:24Z</time>
      </trkpt>
      <trkpt lat="47.82062" lon="-3.25917">
        <ele>5.42</ele>
        <time>2012-05-08T13:30:27Z</time>
      </trkpt>
      <trkpt lat="47.82042" lon="-3.2589">
        <ele>4.94</ele>
        <time>2012-05-08T13:30:31Z</time>
      </trkpt>
      <trkpt lat="47.82029" lon="-3.25882">
        <ele>4.94</ele>
        <time>2012-05-08T13:30:33Z</time>
      </trkpt>
      <trkpt lat="47.81984" lon="-3.25818">
        <ele>4.46</ele>
        <time>2012-05-08T13:30:42Z</time>
      </trkpt>
      <trkpt lat="47.81974" lon="-3.2579">
        <ele>4.46</ele>
        <time>2012-05-08T13:30:45Z</time>
      </trkpt>
      <trkpt lat="47.81963" lon="-3.25673">
        <ele>3.98</ele>
        <time>2012-05-08T13:30:56Z</time>
      </trkpt>
      <trkpt lat="47.81958" lon="-3.25523">
        <ele>3.5</ele>
        <time>2012-05-08T13:31:10Z</time>
      </trkpt>
      <trkpt lat="47.81963" lon="-3.25487">
        <ele>3.5</ele>
        <time>2012-05-08T13:31:14Z</time>
      </trkpt>
      <trkpt lat="47.81991" lon="-3.25425">
        <ele>3.02</ele>
        <time>2012-05-08T13:31:24Z</time>
      </trkpt>
      <trkpt lat="47.82029" lon="-3.25379">
        <ele>3.02</ele>
        <time>2012-05-08T13:31:33Z</time>
      </trkpt>
      <trkpt lat="47.8211" lon="-3.25322">
        <ele>6.39</ele>
        <time>2012-05-08T13:31:46Z</time>
      </trkpt>
      <trkpt lat="47.82148" lon="-3.25299">
        <ele>6.87</ele>
        <time>2012-05-08T13:31:54Z</time>
      </trkpt>
      <trkpt lat="47.82158" lon="-3.25297">
        <ele>6.87</ele>
        <time>2012-05-08T13:31:57Z</time>
      </trkpt>
      <trkpt lat="47.82171" lon="-3.2529">
        <ele>6.87</ele>
        <time>2012-05-08T13:32:02Z</time>
      </trkpt>
      <trkpt lat="47.82221" lon="-3.25277">
        <ele>6.87</ele>
        <time>2012-05-08T13:32:12Z</time>
      </trkpt>
      <trkpt lat="47.82308" lon="-3.25256">
        <ele>6.87</ele>
        <time>2012-05-08T13:32:26Z</time>
      </trkpt>
      <trkpt lat="47.82327" lon="-3.25246">
        <ele>6.39</ele>
        <time>2012-05-08T13:32:30Z</time>
      </trkpt>
      <trkpt lat="47.82348" lon="-3.25231">
        <ele>5.42</ele>
        <time>2012-05-08T13:32:35Z</time>
      </trkpt>
      <trkpt lat="47.82385" lon="-3.252">
        <ele>5.91</ele>
        <time>2012-05-08T13:32:44Z</time>
      </trkpt>
      <trkpt lat="47.82387" lon="-3.25197">
        <ele>5.91</ele>
        <time>2012-05-08T13:32:45Z</time>
      </trkpt>
      <trkpt lat="47.82433" lon="-3.25144">
        <ele>8.79</ele>
        <time>2012-05-08T13:32:56Z</time>
      </trkpt>
      <trkpt lat="47.82491" lon="-3.25049">
        <ele>10.23</ele>
        <time>2012-05-08T13:33:09Z</time>
      </trkpt>
      <trkpt lat="47.82496" lon="-3.25041">
        <ele>10.23</ele>
        <time>2012-05-08T13:33:10Z</time>
      </trkpt>
      <trkpt lat="47.82545" lon="-3.24925">
        <ele>10.71</ele>
        <time>2012-05-08T13:33:23Z</time>
      </trkpt>
      <trkpt lat="47.82581" lon="-3.2482">
        <ele>10.71</ele>
        <time>2012-05-08T13:33:34Z</time>
      </trkpt>
      <trkpt lat="47.82608" lon="-3.24742">
        <ele>12.15</ele>
        <time>2012-05-08T13:33:42Z</time>
      </trkpt>
      <trkpt lat="47.82654" lon="-3.24657">
        <ele>13.12</ele>
        <time>2012-05-08T13:33:53Z</time>
      </trkpt>
      <trkpt lat="47.82723" lon="-3.2453">
        <ele>13.6</ele>
        <time>2012-05-08T13:34:08Z</time>
      </trkpt>
      <trkpt lat="47.82756" lon="-3.2448">
        <ele>14.08</ele>
        <time>2012-05-08T13:34:14Z</time>
      </trkpt>
      <trkpt lat="47.82815" lon="-3.24357">
        <ele>14.08</ele>
        <time>2012-05-08T13:34:28Z</time>
      </trkpt>
      <trkpt lat="47.82886" lon="-3.24208">
        <ele>13.6</ele>
        <time>2012-05-08T13:34:44Z</time>
      </trkpt>
      <trkpt lat="47.82942" lon="-3.24084">
        <ele>13.6</ele>
        <time>2012-05-08T13:34:57Z</time>
      </trkpt>
      <trkpt lat="47.82993" lon="-3.23938">
        <ele>14.08</ele>
        <time>2012-05-08T13:35:11Z</time>
      </trkpt>
      <trkpt lat="47.83051" lon="-3.23786">
        <ele>15.04</ele>
        <time>2012-05-08T13:35:26Z</time>
      </trkpt>
      <trkpt lat="47.83067" lon="-3.23666">
        <ele>15.04</ele>
        <time>2012-05-08T13:35:36Z</time>
      </trkpt>
      <trkpt lat="47.83067" lon="-3.23464">
        <ele>14.08</ele>
        <time>2012-05-08T13:35:53Z</time>
      </trkpt>
      <trkpt lat="47.83069" lon="-3.23404">
        <ele>13.6</ele>
        <time>2012-05-08T13:35:58Z</time>
      </trkpt>
      <trkpt lat="47.83093" lon="-3.23225">
        <ele>12.63</ele>
        <time>2012-05-08T13:36:13Z</time>
      </trkpt>
      <trkpt lat="47.83105" lon="-3.2303">
        <ele>12.63</ele>
        <time>2012-05-08T13:36:29Z</time>
      </trkpt>
      <trkpt lat="47.83108" lon="-3.22924">
        <ele>13.12</ele>
        <time>2012-05-08T13:36:38Z</time>
      </trkpt>
      <trkpt lat="47.83094" lon="-3.22783">
        <ele>13.12</ele>
        <time>2012-05-08T13:36:50Z</time>
      </trkpt>
      <trkpt lat="47.83093" lon="-3.22759">
        <ele>13.12</ele>
        <time>2012-05-08T13:36:52Z</time>
      </trkpt>
      <trkpt lat="47.83112" lon="-3.22657">
        <ele>13.12</ele>
        <time>2012-05-08T13:37:01Z</time>
      </trkpt>
      <trkpt lat="47.83153" lon="-3.2253">
        <ele>13.12</ele>
        <time>2012-05-08T13:37:13Z</time>
      </trkpt>
      <trkpt lat="47.83154" lon="-3.22414">
        <ele>15.52</ele>
        <time>2012-05-08T13:37:23Z</time>
      </trkpt>
      <trkpt lat="47.83133" lon="-3.22289">
        <ele>16.48</ele>
        <time>2012-05-08T13:37:35Z</time>
      </trkpt>
      <trkpt lat="47.83114" lon="-3.2225">
        <ele>16</ele>
        <time>2012-05-08T13:37:39Z</time>
      </trkpt>
      <trkpt lat="47.83089" lon="-3.22183">
        <ele>16.48</ele>
        <time>2012-05-08T13:37:46Z</time>
      </trkpt>
      <trkpt lat="47.83057" lon="-3.22086">
        <ele>15.04</ele>
        <time>2012-05-08T13:37:56Z</time>
      </trkpt>
      <trkpt lat="47.83036" lon="-3.2197">
        <ele>13.6</ele>
        <time>2012-05-08T13:38:09Z</time>
      </trkpt>
      <trkpt lat="47.83031" lon="-3.21947">
        <ele>13.6</ele>
        <time>2012-05-08T13:38:12Z</time>
      </trkpt>
      <trkpt lat="47.83022" lon="-3.21921">
        <ele>14.08</ele>
        <time>2012-05-08T13:38:16Z</time>
      </trkpt>
      <trkpt lat="47.83003" lon="-3.21831">
        <ele>13.12</ele>
        <time>2012-05-08T13:38:28Z</time>
      </trkpt>
      <trkpt lat="47.82984" lon="-3.21731">
        <ele>12.15</ele>
        <time>2012-05-08T13:38:40Z</time>
      </trkpt>
      <trkpt lat="47.82974" lon="-3.21699">
        <ele>11.67</ele>
        <time>2012-05-08T13:38:44Z</time>
      </trkpt>
      <trkpt lat="47.82939" lon="-3.21573">
        <ele>12.15</ele>
        <time>2012-05-08T13:38:58Z</time>
      </trkpt>
      <trkpt lat="47.82936" lon="-3.21551">
        <ele>12.15</ele>
        <time>2012-05-08T13:39:00Z</time>
      </trkpt>
      <trkpt lat="47.8293" lon="-3.21519">
        <ele>12.15</ele>
        <time>2012-05-08T13:39:03Z</time>
      </trkpt>
      <trkpt lat="47.82907" lon="-3.21417">
        <ele>11.19</ele>
        <time>2012-05-08T13:39:13Z</time>
      </trkpt>
      <trkpt lat="47.82903" lon="-3.21375">
        <ele>11.19</ele>
        <time>2012-05-08T13:39:17Z</time>
      </trkpt>
      <trkpt lat="47.82929" lon="-3.21261">
        <ele>11.67</ele>
        <time>2012-05-08T13:39:29Z</time>
      </trkpt>
      <trkpt lat="47.82963" lon="-3.21185">
        <ele>11.67</ele>
        <time>2012-05-08T13:39:38Z</time>
      </trkpt>
      <trkpt lat="47.82974" lon="-3.21166">
        <ele>12.15</ele>
        <time>2012-05-08T13:39:42Z</time>
      </trkpt>
      <trkpt lat="47.83025" lon="-3.21103">
        <ele>12.63</ele>
        <time>2012-05-08T13:39:55Z</time>
      </trkpt>
      <trkpt lat="47.83102" lon="-3.21035">
        <ele>12.63</ele>
        <time>2012-05-08T13:40:09Z</time>
      </trkpt>
      <trkpt lat="47.83203" lon="-3.20956">
        <ele>13.12</ele>
        <time>2012-05-08T13:40:25Z</time>
      </trkpt>
      <trkpt lat="47.83262" lon="-3.20918">
        <ele>13.6</ele>
        <time>2012-05-08T13:40:34Z</time>
      </trkpt>
      <trkpt lat="47.8331" lon="-3.20887">
        <ele>15.04</ele>
        <time>2012-05-08T13:40:43Z</time>
      </trkpt>
      <trkpt lat="47.83351" lon="-3.20851">
        <ele>16</ele>
        <time>2012-05-08T13:40:52Z</time>
      </trkpt>
      <trkpt lat="47.83405" lon="-3.20788">
        <ele>16.96</ele>
        <time>2012-05-08T13:41:04Z</time>
      </trkpt>
      <trkpt lat="47.83482" lon="-3.20677">
        <ele>16.96</ele>
        <time>2012-05-08T13:41:20Z</time>
      </trkpt>
      <trkpt lat="47.83566" lon="-3.20557">
        <ele>14.56</ele>
        <time>2012-05-08T13:41:37Z</time>
      </trkpt>
      <trkpt lat="47.83592" lon="-3.20525">
        <ele>15.04</ele>
        <time>2012-05-08T13:41:42Z</time>
      </trkpt>
      <trkpt lat="47.83608" lon="-3.2051">
        <ele>15.04</ele>
        <time>2012-05-08T13:41:45Z</time>
      </trkpt>
      <trkpt lat="47.83626" lon="-3.20501">
        <ele>15.04</ele>
        <time>2012-05-08T13:41:48Z</time>
      </trkpt>
      <trkpt lat="47.83701" lon="-3.2049">
        <ele>13.6</ele>
        <time>2012-05-08T13:42:00Z</time>
      </trkpt>
      <trkpt lat="47.8372" lon="-3.20493">
        <ele>13.12</ele>
        <time>2012-05-08T13:42:03Z</time>
      </trkpt>
      <trkpt lat="47.83745" lon="-3.20503">
        <ele>13.12</ele>
        <time>2012-05-08T13:42:07Z</time>
      </trkpt>
      <trkpt lat="47.83843" lon="-3.20531">
        <ele>14.56</ele>
        <time>2012-05-08T13:42:22Z</time>
      </trkpt>
      <trkpt lat="47.83926" lon="-3.20531">
        <ele>16.48</ele>
        <time>2012-05-08T13:42:35Z</time>
      </trkpt>
      <trkpt lat="47.83944" lon="-3.20531">
        <ele>16.96</ele>
        <time>2012-05-08T13:42:38Z</time>
      </trkpt>
      <trkpt lat="47.84018" lon="-3.20524">
        <ele>17.44</ele>
        <time>2012-05-08T13:42:50Z</time>
      </trkpt>
      <trkpt lat="47.84037" lon="-3.20529">
        <ele>17.92</ele>
        <time>2012-05-08T13:42:53Z</time>
      </trkpt>
      <trkpt lat="47.84095" lon="-3.20583">
        <ele>16.48</ele>
        <time>2012-05-08T13:43:04Z</time>
      </trkpt>
      <trkpt lat="47.84133" lon="-3.2067">
        <ele>15.04</ele>
        <time>2012-05-08T13:43:15Z</time>
      </trkpt>
      <trkpt lat="47.84205" lon="-3.20769">
        <ele>13.12</ele>
        <time>2012-05-08T13:43:31Z</time>
      </trkpt>
      <trkpt lat="47.84277" lon="-3.20864">
        <ele>13.12</ele>
        <time>2012-05-08T13:43:46Z</time>
      </trkpt>
      <trkpt lat="47.84367" lon="-3.20941">
        <ele>13.6</ele>
        <time>2012-05-08T13:44:03Z</time>
      </trkpt>
      <trkpt lat="47.84427" lon="-3.21016">
        <ele>12.63</ele>
        <time>2012-05-08T13:44:16Z</time>
      </trkpt>
      <trkpt lat="47.84465" lon="-3.21076">
        <ele>13.12</ele>
        <time>2012-05-08T13:44:27Z</time>
      </trkpt>
      <trkpt lat="47.845" lon="-3.2116">
        <ele>14.56</ele>
        <time>2012-05-08T13:44:39Z</time>
      </trkpt>
      <trkpt lat="47.84507" lon="-3.21181">
        <ele>14.08</ele>
        <time>2012-05-08T13:44:42Z</time>
      </trkpt>
      <trkpt lat="47.84565" lon="-3.21281">
        <ele>11.67</ele>
        <time>2012-05-08T13:44:57Z</time>
      </trkpt>
      <trkpt lat="47.84626" lon="-3.21393">
        <ele>8.31</ele>
        <time>2012-05-08T13:45:14Z</time>
      </trkpt>
      <trkpt lat="47.84644" lon="-3.21429">
        <ele>7.35</ele>
        <time>2012-05-08T13:45:20Z</time>
      </trkpt>
      <trkpt lat="47.84682" lon="-3.21492">
        <ele>8.31</ele>
        <time>2012-05-08T13:45:31Z</time>
      </trkpt>
      <trkpt lat="47.84738" lon="-3.21561">
        <ele>9.27</ele>
        <time>2012-05-08T13:45:44Z</time>
      </trkpt>
      <trkpt lat="47.84774" lon="-3.21573">
        <ele>9.27</ele>
        <time>2012-05-08T13:45:50Z</time>
      </trkpt>
      <trkpt lat="47.84829" lon="-3.21575">
        <ele>9.75</ele>
        <time>2012-05-08T13:45:59Z</time>
      </trkpt>
      <trkpt lat="47.84913" lon="-3.21565">
        <ele>11.67</ele>
        <time>2012-05-08T13:46:13Z</time>
      </trkpt>
      <trkpt lat="47.85" lon="-3.21559">
        <ele>13.6</ele>
        <time>2012-05-08T13:46:27Z</time>
      </trkpt>
      <trkpt lat="47.85086" lon="-3.21562">
        <ele>15.04</ele>
        <time>2012-05-08T13:46:42Z</time>
      </trkpt>
      <trkpt lat="47.8516" lon="-3.21573">
        <ele>13.6</ele>
        <time>2012-05-08T13:46:56Z</time>
      </trkpt>
      <trkpt lat="47.85202" lon="-3.21579">
        <ele>13.6</ele>
        <time>2012-05-08T13:47:03Z</time>
      </trkpt>
      <trkpt lat="47.85226" lon="-3.21574">
        <ele>13.6</ele>
        <time>2012-05-08T13:47:07Z</time>
      </trkpt>
      <trkpt lat="47.8529" lon="-3.21536">
        <ele>10.71</ele>
        <time>2012-05-08T13:47:19Z</time>
      </trkpt>
      <trkpt lat="47.85316" lon="-3.21495">
        <ele>14.08</ele>
        <time>2012-05-08T13:47:26Z</time>
      </trkpt>
      <trkpt lat="47.85317" lon="-3.21469">
        <ele>15.04</ele>
        <time>2012-05-08T13:47:29Z</time>
      </trkpt>
      <trkpt lat="47.85316" lon="-3.21443">
        <ele>15.04</ele>
        <time>2012-05-08T13:47:32Z</time>
      </trkpt>
      <trkpt lat="47.85296" lon="-3.21381">
        <ele>14.08</ele>
        <time>2012-05-08T13:47:40Z</time>
      </trkpt>
      <trkpt lat="47.8529" lon="-3.21365">
        <ele>13.12</ele>
        <time>2012-05-08T13:47:42Z</time>
      </trkpt>
      <trkpt lat="47.85286" lon="-3.21296">
        <ele>11.67</ele>
        <time>2012-05-08T13:47:50Z</time>
      </trkpt>
      <trkpt lat="47.85292" lon="-3.2128">
        <ele>11.67</ele>
        <time>2012-05-08T13:47:52Z</time>
      </trkpt>
      <trkpt lat="47.8533" lon="-3.21208">
        <ele>10.71</ele>
        <time>2012-05-08T13:48:03Z</time>
      </trkpt>
      <trkpt lat="47.85334" lon="-3.21202">
        <ele>10.23</ele>
        <time>2012-05-08T13:48:04Z</time>
      </trkpt>
      <trkpt lat="47.85348" lon="-3.21172">
        <ele>11.19</ele>
        <time>2012-05-08T13:48:08Z</time>
      </trkpt>
      <trkpt lat="47.85391" lon="-3.21135">
        <ele>12.63</ele>
        <time>2012-05-08T13:48:16Z</time>
      </trkpt>
      <trkpt lat="47.85438" lon="-3.21143">
        <ele>13.6</ele>
        <time>2012-05-08T13:48:24Z</time>
      </trkpt>
      <trkpt lat="47.85471" lon="-3.21169">
        <ele>13.12</ele>
        <time>2012-05-08T13:48:33Z</time>
      </trkpt>
      <trkpt lat="47.85501" lon="-3.21198">
        <ele>13.6</ele>
        <time>2012-05-08T13:48:40Z</time>
      </trkpt>
      <trkpt lat="47.85519" lon="-3.2122">
        <ele>14.08</ele>
        <time>2012-05-08T13:48:44Z</time>
      </trkpt>
      <trkpt lat="47.85538" lon="-3.21243">
        <ele>14.08</ele>
        <time>2012-05-08T13:48:48Z</time>
      </trkpt>
      <trkpt lat="47.8557" lon="-3.21253">
        <ele>14.08</ele>
        <time>2012-05-08T13:48:53Z</time>
      </trkpt>
      <trkpt lat="47.85633" lon="-3.21209">
        <ele>15.04</ele>
        <time>2012-05-08T13:49:04Z</time>
      </trkpt>
      <trkpt lat="47.85683" lon="-3.21154">
        <ele>15.52</ele>
        <time>2012-05-08T13:49:14Z</time>
      </trkpt>
      <trkpt lat="47.85749" lon="-3.21086">
        <ele>12.15</ele>
        <time>2012-05-08T13:49:27Z</time>
      </trkpt>
      <trkpt lat="47.85795" lon="-3.21032">
        <ele>10.71</ele>
        <time>2012-05-08T13:49:36Z</time>
      </trkpt>
      <trkpt lat="47.85862" lon="-3.20964">
        <ele>10.71</ele>
        <time>2012-05-08T13:49:48Z</time>
      </trkpt>
      <trkpt lat="47.85917" lon="-3.20916">
        <ele>12.15</ele>
        <time>2012-05-08T13:49:58Z</time>
      </trkpt>
      <trkpt lat="47.86" lon="-3.20844">
        <ele>15.52</ele>
        <time>2012-05-08T13:50:11Z</time>
      </trkpt>
      <trkpt lat="47.86082" lon="-3.20736">
        <ele>17.44</ele>
        <time>2012-05-08T13:50:27Z</time>
      </trkpt>
      <trkpt lat="47.86114" lon="-3.20695">
        <ele>18.4</ele>
        <time>2012-05-08T13:50:34Z</time>
      </trkpt>
      <trkpt lat="47.86163" lon="-3.20617">
        <ele>19.36</ele>
        <time>2012-05-08T13:50:46Z</time>
      </trkpt>
      <trkpt lat="47.86227" lon="-3.20509">
        <ele>17.92</ele>
        <time>2012-05-08T13:51:02Z</time>
      </trkpt>
      <trkpt lat="47.86264" lon="-3.20441">
        <ele>16.48</ele>
        <time>2012-05-08T13:51:12Z</time>
      </trkpt>
      <trkpt lat="47.86277" lon="-3.20415">
        <ele>16</ele>
        <time>2012-05-08T13:51:19Z</time>
      </trkpt>
      <trkpt lat="47.86301" lon="-3.20351">
        <ele>15.04</ele>
        <time>2012-05-08T13:51:31Z</time>
      </trkpt>
      <trkpt lat="47.8634" lon="-3.20237">
        <ele>14.56</ele>
        <time>2012-05-08T13:51:46Z</time>
      </trkpt>
      <trkpt lat="47.86387" lon="-3.20106">
        <ele>15.52</ele>
        <time>2012-05-08T13:52:02Z</time>
      </trkpt>
      <trkpt lat="47.86423" lon="-3.20028">
        <ele>16.96</ele>
        <time>2012-05-08T13:52:14Z</time>
      </trkpt>
      <trkpt lat="47.8645" lon="-3.19973">
        <ele>17.92</ele>
        <time>2012-05-08T13:52:25Z</time>
      </trkpt>
      <trkpt lat="47.86468" lon="-3.19944">
        <ele>18.88</ele>
        <time>2012-05-08T13:52:35Z</time>
      </trkpt>
      <trkpt lat="47.86481" lon="-3.19932">
        <ele>19.84</ele>
        <time>2012-05-08T13:52:42Z</time>
      </trkpt>
      <trkpt lat="47.86527" lon="-3.19891">
        <ele>20.32</ele>
        <time>2012-05-08T13:52:53Z</time>
      </trkpt>
      <trkpt lat="47.86542" lon="-3.19878">
        <ele>20.32</ele>
        <time>2012-05-08T13:52:56Z</time>
      </trkpt>
      <trkpt lat="47.8656" lon="-3.19857">
        <ele>21.29</ele>
        <time>2012-05-08T13:53:00Z</time>
      </trkpt>
      <trkpt lat="47.86624" lon="-3.198">
        <ele>19.36</ele>
        <time>2012-05-08T13:53:13Z</time>
      </trkpt>
      <trkpt lat="47.8666" lon="-3.19774">
        <ele>18.88</ele>
        <time>2012-05-08T13:53:20Z</time>
      </trkpt>
      <trkpt lat="47.86739" lon="-3.19715">
        <ele>17.92</ele>
        <time>2012-05-08T13:53:35Z</time>
      </trkpt>
      <trkpt lat="47.86816" lon="-3.19656">
        <ele>18.88</ele>
        <time>2012-05-08T13:53:49Z</time>
      </trkpt>
      <trkpt lat="47.86907" lon="-3.19606">
        <ele>17.92</ele>
        <time>2012-05-08T13:54:04Z</time>
      </trkpt>
      <trkpt lat="47.86994" lon="-3.19584">
        <ele>16</ele>
        <time>2012-05-08T13:54:17Z</time>
      </trkpt>
      <trkpt lat="47.87069" lon="-3.19577">
        <ele>15.52</ele>
        <time>2012-05-08T13:54:30Z</time>
      </trkpt>
      <trkpt lat="47.87156" lon="-3.19577">
        <ele>15.52</ele>
        <time>2012-05-08T13:54:46Z</time>
      </trkpt>
      <trkpt lat="47.87259" lon="-3.19592">
        <ele>14.56</ele>
        <time>2012-05-08T13:55:02Z</time>
      </trkpt>
      <trkpt lat="47.87334" lon="-3.19635">
        <ele>13.6</ele>
        <time>2012-05-08T13:55:14Z</time>
      </trkpt>
      <trkpt lat="47.87423" lon="-3.19714">
        <ele>12.15</ele>
        <time>2012-05-08T13:55:30Z</time>
      </trkpt>
      <trkpt lat="47.87449" lon="-3.19736">
        <ele>12.15</ele>
        <time>2012-05-08T13:55:35Z</time>
      </trkpt>
      <trkpt lat="47.87544" lon="-3.19834">
        <ele>11.67</ele>
        <time>2012-05-08T13:55:52Z</time>
      </trkpt>
      <trkpt lat="47.87581" lon="-3.19867">
        <ele>12.15</ele>
        <time>2012-05-08T13:55:59Z</time>
      </trkpt>
      <trkpt lat="47.87646" lon="-3.1991">
        <ele>12.15</ele>
        <time>2012-05-08T13:56:11Z</time>
      </trkpt>
      <trkpt lat="47.87699" lon="-3.19964">
        <ele>11.67</ele>
        <time>2012-05-08T13:56:21Z</time>
      </trkpt>
      <trkpt lat="47.87756" lon="-3.20023">
        <ele>11.67</ele>
        <time>2012-05-08T13:56:33Z</time>
      </trkpt>
      <trkpt lat="47.87826" lon="-3.2009">
        <ele>12.15</ele>
        <time>2012-05-08T13:56:47Z</time>
      </trkpt>
      <trkpt lat="47.87903" lon="-3.20171">
        <ele>12.15</ele>
        <time>2012-05-08T13:57:02Z</time>
      </trkpt>
      <trkpt lat="47.87959" lon="-3.20235">
        <ele>12.63</ele>
        <time>2012-05-08T13:57:13Z</time>
      </trkpt>
      <trkpt lat="47.87983" lon="-3.20264">
        <ele>13.6</ele>
        <time>2012-05-08T13:57:18Z</time>
      </trkpt>
      <trkpt lat="47.88" lon="-3.20287">
        <ele>14.08</ele>
        <time>2012-05-08T13:57:22Z</time>
      </trkpt>
      <trkpt lat="47.88031" lon="-3.20307">
        <ele>14.08</ele>
        <time>2012-05-08T13:57:28Z</time>
      </trkpt>
      <trkpt lat="47.88062" lon="-3.20334">
        <ele>14.08</ele>
        <time>2012-05-08T13:57:34Z</time>
      </trkpt>
      <trkpt lat="47.88098" lon="-3.20346">
        <ele>13.6</ele>
        <time>2012-05-08T13:57:40Z</time>
      </trkpt>
      <trkpt lat="47.8816" lon="-3.20316">
        <ele>14.56</ele>
        <time>2012-05-08T13:57:50Z</time>
      </trkpt>
      <trkpt lat="47.88261" lon="-3.20247">
        <ele>15.04</ele>
        <time>2012-05-08T13:58:07Z</time>
      </trkpt>
      <trkpt lat="47.88332" lon="-3.20201">
        <ele>15.52</ele>
        <time>2012-05-08T13:58:19Z</time>
      </trkpt>
      <trkpt lat="47.88344" lon="-3.20194">
        <ele>15.52</ele>
        <time>2012-05-08T13:58:21Z</time>
      </trkpt>
      <trkpt lat="47.88404" lon="-3.20132">
        <ele>16</ele>
        <time>2012-05-08T13:58:32Z</time>
      </trkpt>
      <trkpt lat="47.88456" lon="-3.20035">
        <ele>15.52</ele>
        <time>2012-05-08T13:58:44Z</time>
      </trkpt>
      <trkpt lat="47.88489" lon="-3.1992">
        <ele>14.56</ele>
        <time>2012-05-08T13:58:56Z</time>
      </trkpt>
      <trkpt lat="47.88538" lon="-3.19739">
        <ele>14.08</ele>
        <time>2012-05-08T13:59:15Z</time>
      </trkpt>
      <trkpt lat="47.88559" lon="-3.19645">
        <ele>11.19</ele>
        <time>2012-05-08T13:59:25Z</time>
      </trkpt>
      <trkpt lat="47.88606" lon="-3.19499">
        <ele>11.67</ele>
        <time>2012-05-08T13:59:42Z</time>
      </trkpt>
      <trkpt lat="47.88658" lon="-3.19365">
        <ele>12.63</ele>
        <time>2012-05-08T13:59:57Z</time>
      </trkpt>
      <trkpt lat="47.88709" lon="-3.19191">
        <ele>13.6</ele>
        <time>2012-05-08T14:00:15Z</time>
      </trkpt>
      <trkpt lat="47.88745" lon="-3.19035">
        <ele>15.04</ele>
        <time>2012-05-08T14:00:32Z</time>
      </trkpt>
      <trkpt lat="47.88757" lon="-3.1896">
        <ele>15.52</ele>
        <time>2012-05-08T14:00:40Z</time>
      </trkpt>
      <trkpt lat="47.88747" lon="-3.18845">
        <ele>15.52</ele>
        <time>2012-05-08T14:00:52Z</time>
      </trkpt>
      <trkpt lat="47.88718" lon="-3.18686">
        <ele>16.96</ele>
        <time>2012-05-08T14:01:09Z</time>
      </trkpt>
      <trkpt lat="47.88698" lon="-3.18589">
        <ele>18.4</ele>
        <time>2012-05-08T14:01:20Z</time>
      </trkpt>
      <trkpt lat="47.88674" lon="-3.18471">
        <ele>17.92</ele>
        <time>2012-05-08T14:01:34Z</time>
      </trkpt>
      <trkpt lat="47.88662" lon="-3.1836">
        <ele>15.04</ele>
        <time>2012-05-08T14:01:46Z</time>
      </trkpt>
      <trkpt lat="47.88649" lon="-3.18135">
        <ele>16</ele>
        <time>2012-05-08T14:02:09Z</time>
      </trkpt>
      <trkpt lat="47.88638" lon="-3.18023">
        <ele>17.44</ele>
        <time>2012-05-08T14:02:21Z</time>
      </trkpt>
      <trkpt lat="47.88613" lon="-3.17873">
        <ele>16.48</ele>
        <time>2012-05-08T14:02:38Z</time>
      </trkpt>
      <trkpt lat="47.88613" lon="-3.17765">
        <ele>17.92</ele>
        <time>2012-05-08T14:02:50Z</time>
      </trkpt>
      <trkpt lat="47.88619" lon="-3.17651">
        <ele>21.77</ele>
        <time>2012-05-08T14:03:03Z</time>
      </trkpt>
      <trkpt lat="47.88617" lon="-3.17606">
        <ele>23.69</ele>
        <time>2012-05-08T14:03:08Z</time>
      </trkpt>
      <trkpt lat="47.88624" lon="-3.17559">
        <ele>26.09</ele>
        <time>2012-05-08T14:03:15Z</time>
      </trkpt>
      <trkpt lat="47.88626" lon="-3.17511">
        <ele>25.61</ele>
        <time>2012-05-08T14:03:22Z</time>
      </trkpt>
      <trkpt lat="47.88636" lon="-3.17453">
        <ele>28.02</ele>
        <time>2012-05-08T14:03:29Z</time>
      </trkpt>
      <trkpt lat="47.88639" lon="-3.17435">
        <ele>28.98</ele>
        <time>2012-05-08T14:03:31Z</time>
      </trkpt>
      <trkpt lat="47.88646" lon="-3.17348">
        <ele>25.61</ele>
        <time>2012-05-08T14:03:40Z</time>
      </trkpt>
      <trkpt lat="47.88674" lon="-3.17212">
        <ele>16.96</ele>
        <time>2012-05-08T14:03:55Z</time>
      </trkpt>
      <trkpt lat="47.88704" lon="-3.17085">
        <ele>16.96</ele>
        <time>2012-05-08T14:04:08Z</time>
      </trkpt>
      <trkpt lat="47.88736" lon="-3.16905">
        <ele>12.63</ele>
        <time>2012-05-08T14:04:26Z</time>
      </trkpt>
      <trkpt lat="47.88744" lon="-3.16866">
        <ele>12.15</ele>
        <time>2012-05-08T14:04:30Z</time>
      </trkpt>
      <trkpt lat="47.88761" lon="-3.16766">
        <ele>12.15</ele>
        <time>2012-05-08T14:04:40Z</time>
      </trkpt>
      <trkpt lat="47.88765" lon="-3.16748">
        <ele>12.15</ele>
        <time>2012-05-08T14:04:42Z</time>
      </trkpt>
      <trkpt lat="47.88769" lon="-3.1672">
        <ele>12.15</ele>
        <time>2012-05-08T14:04:45Z</time>
      </trkpt>
      <trkpt lat="47.88783" lon="-3.1664">
        <ele>14.08</ele>
        <time>2012-05-08T14:04:55Z</time>
      </trkpt>
      <trkpt lat="47.88795" lon="-3.16575">
        <ele>15.52</ele>
        <time>2012-05-08T14:05:05Z</time>
      </trkpt>
      <trkpt lat="47.88801" lon="-3.16541">
        <ele>16.48</ele>
        <time>2012-05-08T14:05:10Z</time>
      </trkpt>
      <trkpt lat="47.88816" lon="-3.16455">
        <ele>16.48</ele>
        <time>2012-05-08T14:05:22Z</time>
      </trkpt>
      <trkpt lat="47.88827" lon="-3.16395">
        <ele>16.96</ele>
        <time>2012-05-08T14:05:30Z</time>
      </trkpt>
      <trkpt lat="47.88831" lon="-3.16371">
        <ele>17.44</ele>
        <time>2012-05-08T14:05:33Z</time>
      </trkpt>
      <trkpt lat="47.88836" lon="-3.16348">
        <ele>17.44</ele>
        <time>2012-05-08T14:05:36Z</time>
      </trkpt>
      <trkpt lat="47.88838" lon="-3.16334">
        <ele>16.96</ele>
        <time>2012-05-08T14:05:38Z</time>
      </trkpt>
      <trkpt lat="47.88846" lon="-3.16296">
        <ele>16</ele>
        <time>2012-05-08T14:05:43Z</time>
      </trkpt>
      <trkpt lat="47.88851" lon="-3.16264">
        <ele>15.52</ele>
        <time>2012-05-08T14:05:47Z</time>
      </trkpt>
      <trkpt lat="47.88859" lon="-3.16225">
        <ele>13.6</ele>
        <time>2012-05-08T14:05:52Z</time>
      </trkpt>
      <trkpt lat="47.88865" lon="-3.16202">
        <ele>13.6</ele>
        <time>2012-05-08T14:05:55Z</time>
      </trkpt>
      <trkpt lat="47.88869" lon="-3.16168">
        <ele>14.08</ele>
        <time>2012-05-08T14:05:59Z</time>
      </trkpt>
      <trkpt lat="47.88881" lon="-3.16087">
        <ele>14.56</ele>
        <time>2012-05-08T14:06:09Z</time>
      </trkpt>
      <trkpt lat="47.88884" lon="-3.16053">
        <ele>15.04</ele>
        <time>2012-05-08T14:06:13Z</time>
      </trkpt>
      <trkpt lat="47.88896" lon="-3.15978">
        <ele>15.04</ele>
        <time>2012-05-08T14:06:22Z</time>
      </trkpt>
      <trkpt lat="47.88918" lon="-3.15882">
        <ele>18.4</ele>
        <time>2012-05-08T14:06:34Z</time>
      </trkpt>
      <trkpt lat="47.88933" lon="-3.15787">
        <ele>18.4</ele>
        <time>2012-05-08T14:06:46Z</time>
      </trkpt>
      <trkpt lat="47.88944" lon="-3.15693">
        <ele>17.92</ele>
        <time>2012-05-08T14:06:58Z</time>
      </trkpt>
      <trkpt lat="47.88945" lon="-3.15554">
        <ele>19.84</ele>
        <time>2012-05-08T14:07:12Z</time>
      </trkpt>
      <trkpt lat="47.88933" lon="-3.15441">
        <ele>18.4</ele>
        <time>2012-05-08T14:07:23Z</time>
      </trkpt>
      <trkpt lat="47.8894" lon="-3.15336">
        <ele>17.92</ele>
        <time>2012-05-08T14:07:33Z</time>
      </trkpt>
      <trkpt lat="47.88957" lon="-3.152">
        <ele>18.4</ele>
        <time>2012-05-08T14:07:47Z</time>
      </trkpt>
      <trkpt lat="47.88967" lon="-3.15093">
        <ele>17.92</ele>
        <time>2012-05-08T14:07:58Z</time>
      </trkpt>
      <trkpt lat="47.88975" lon="-3.15016">
        <ele>17.92</ele>
        <time>2012-05-08T14:08:06Z</time>
      </trkpt>
      <trkpt lat="47.88978" lon="-3.14987">
        <ele>17.92</ele>
        <time>2012-05-08T14:08:09Z</time>
      </trkpt>
      <trkpt lat="47.88983" lon="-3.14937">
        <ele>17.44</ele>
        <time>2012-05-08T14:08:14Z</time>
      </trkpt>
      <trkpt lat="47.88989" lon="-3.14883">
        <ele>16</ele>
        <time>2012-05-08T14:08:20Z</time>
      </trkpt>
      <trkpt lat="47.88993" lon="-3.1484">
        <ele>16</ele>
        <time>2012-05-08T14:08:26Z</time>
      </trkpt>
      <trkpt lat="47.88995" lon="-3.14753">
        <ele>16</ele>
        <time>2012-05-08T14:08:36Z</time>
      </trkpt>
      <trkpt lat="47.88995" lon="-3.14733">
        <ele>16</ele>
        <time>2012-05-08T14:08:38Z</time>
      </trkpt>
      <trkpt lat="47.88997" lon="-3.14703">
        <ele>16</ele>
        <time>2012-05-08T14:08:41Z</time>
      </trkpt>
      <trkpt lat="47.88998" lon="-3.14645">
        <ele>15.04</ele>
        <time>2012-05-08T14:08:47Z</time>
      </trkpt>
      <trkpt lat="47.88998" lon="-3.14618">
        <ele>15.04</ele>
        <time>2012-05-08T14:08:50Z</time>
      </trkpt>
      <trkpt lat="47.88985" lon="-3.14533">
        <ele>17.92</ele>
        <time>2012-05-08T14:09:00Z</time>
      </trkpt>
      <trkpt lat="47.88983" lon="-3.14521">
        <ele>18.88</ele>
        <time>2012-05-08T14:09:07Z</time>
      </trkpt>
      <trkpt lat="47.88982" lon="-3.1452">
        <ele>18.88</ele>
        <time>2012-05-08T14:09:09Z</time>
      </trkpt>
      <trkpt lat="47.88979" lon="-3.14508">
        <ele>18.88</ele>
        <time>2012-05-08T14:09:13Z</time>
      </trkpt>
      <trkpt lat="47.88977" lon="-3.14498">
        <ele>18.88</ele>
        <time>2012-05-08T14:09:16Z</time>
      </trkpt>
      <trkpt lat="47.88972" lon="-3.1447">
        <ele>17.92</ele>
        <time>2012-05-08T14:09:22Z</time>
      </trkpt>
      <trkpt lat="47.88963" lon="-3.14408">
        <ele>19.84</ele>
        <time>2012-05-08T14:09:31Z</time>
      </trkpt>
      <trkpt lat="47.8895" lon="-3.1433">
        <ele>18.88</ele>
        <time>2012-05-08T14:09:40Z</time>
      </trkpt>
      <trkpt lat="47.88935" lon="-3.14247">
        <ele>17.92</ele>
        <time>2012-05-08T14:09:49Z</time>
      </trkpt>
      <trkpt lat="47.88927" lon="-3.14174">
        <ele>17.44</ele>
        <time>2012-05-08T14:09:57Z</time>
      </trkpt>
      <trkpt lat="47.88929" lon="-3.1414">
        <ele>18.4</ele>
        <time>2012-05-08T14:10:01Z</time>
      </trkpt>
      <trkpt lat="47.8893" lon="-3.14113">
        <ele>19.84</ele>
        <time>2012-05-08T14:10:04Z</time>
      </trkpt>
      <trkpt lat="47.8893" lon="-3.14084">
        <ele>21.77</ele>
        <time>2012-05-08T14:10:07Z</time>
      </trkpt>
      <trkpt lat="47.88932" lon="-3.14057">
        <ele>22.25</ele>
        <time>2012-05-08T14:10:10Z</time>
      </trkpt>
      <trkpt lat="47.88921" lon="-3.13915">
        <ele>18.88</ele>
        <time>2012-05-08T14:10:26Z</time>
      </trkpt>
      <trkpt lat="47.88905" lon="-3.13793">
        <ele>18.88</ele>
        <time>2012-05-08T14:10:40Z</time>
      </trkpt>
      <trkpt lat="47.88874" lon="-3.13691">
        <ele>18.4</ele>
        <time>2012-05-08T14:10:52Z</time>
      </trkpt>
      <trkpt lat="47.88832" lon="-3.13623">
        <ele>18.4</ele>
        <time>2012-05-08T14:11:01Z</time>
      </trkpt>
      <trkpt lat="47.8879" lon="-3.13568">
        <ele>17.92</ele>
        <time>2012-05-08T14:11:11Z</time>
      </trkpt>
      <trkpt lat="47.88737" lon="-3.135">
        <ele>16.96</ele>
        <time>2012-05-08T14:11:23Z</time>
      </trkpt>
      <trkpt lat="47.88665" lon="-3.13377">
        <ele>17.44</ele>
        <time>2012-05-08T14:11:41Z</time>
      </trkpt>
      <trkpt lat="47.88599" lon="-3.13222">
        <ele>17.44</ele>
        <time>2012-05-08T14:12:01Z</time>
      </trkpt>
      <trkpt lat="47.8858" lon="-3.13173">
        <ele>17.92</ele>
        <time>2012-05-08T14:12:08Z</time>
      </trkpt>
      <trkpt lat="47.88528" lon="-3.13063">
        <ele>18.4</ele>
        <time>2012-05-08T14:12:22Z</time>
      </trkpt>
      <trkpt lat="47.88472" lon="-3.12972">
        <ele>18.4</ele>
        <time>2012-05-08T14:12:36Z</time>
      </trkpt>
      <trkpt lat="47.88416" lon="-3.12914">
        <ele>18.4</ele>
        <time>2012-05-08T14:12:50Z</time>
      </trkpt>
      <trkpt lat="47.8836" lon="-3.12857">
        <ele>17.44</ele>
        <time>2012-05-08T14:13:02Z</time>
      </trkpt>
      <trkpt lat="47.88314" lon="-3.12778">
        <ele>12.15</ele>
        <time>2012-05-08T14:13:14Z</time>
      </trkpt>
      <trkpt lat="47.88279" lon="-3.1265">
        <ele>13.6</ele>
        <time>2012-05-08T14:13:28Z</time>
      </trkpt>
      <trkpt lat="47.88255" lon="-3.12488">
        <ele>14.08</ele>
        <time>2012-05-08T14:13:45Z</time>
      </trkpt>
      <trkpt lat="47.88259" lon="-3.1236">
        <ele>15.04</ele>
        <time>2012-05-08T14:13:59Z</time>
      </trkpt>
      <trkpt lat="47.88262" lon="-3.12322">
        <ele>15.52</ele>
        <time>2012-05-08T14:14:03Z</time>
      </trkpt>
      <trkpt lat="47.88252" lon="-3.12214">
        <ele>15.52</ele>
        <time>2012-05-08T14:14:14Z</time>
      </trkpt>
      <trkpt lat="47.88223" lon="-3.12089">
        <ele>16</ele>
        <time>2012-05-08T14:14:27Z</time>
      </trkpt>
      <trkpt lat="47.88223" lon="-3.1205">
        <ele>16</ele>
        <time>2012-05-08T14:14:31Z</time>
      </trkpt>
      <trkpt lat="47.8824" lon="-3.11928">
        <ele>15.52</ele>
        <time>2012-05-08T14:14:44Z</time>
      </trkpt>
      <trkpt lat="47.88241" lon="-3.1192">
        <ele>15.52</ele>
        <time>2012-05-08T14:14:45Z</time>
      </trkpt>
      <trkpt lat="47.88255" lon="-3.11812">
        <ele>15.52</ele>
        <time>2012-05-08T14:14:57Z</time>
      </trkpt>
      <trkpt lat="47.88266" lon="-3.11659">
        <ele>15.52</ele>
        <time>2012-05-08T14:15:14Z</time>
      </trkpt>
      <trkpt lat="47.88251" lon="-3.11517">
        <ele>16</ele>
        <time>2012-05-08T14:15:30Z</time>
      </trkpt>
      <trkpt lat="47.88232" lon="-3.11336">
        <ele>16</ele>
        <time>2012-05-08T14:15:51Z</time>
      </trkpt>
      <trkpt lat="47.88235" lon="-3.11248">
        <ele>17.44</ele>
        <time>2012-05-08T14:16:03Z</time>
      </trkpt>
      <trkpt lat="47.88249" lon="-3.1116">
        <ele>18.4</ele>
        <time>2012-05-08T14:16:16Z</time>
      </trkpt>
      <trkpt lat="47.88251" lon="-3.11148">
        <ele>17.92</ele>
        <time>2012-05-08T14:16:18Z</time>
      </trkpt>
      <trkpt lat="47.88246" lon="-3.11127">
        <ele>18.4</ele>
        <time>2012-05-08T14:16:23Z</time>
      </trkpt>
      <trkpt lat="47.88243" lon="-3.11125">
        <ele>18.4</ele>
        <time>2012-05-08T14:16:24Z</time>
      </trkpt>
      <trkpt lat="47.8824" lon="-3.11123">
        <ele>18.88</ele>
        <time>2012-05-08T14:16:32Z</time>
      </trkpt>
      <trkpt lat="47.8824" lon="-3.11121">
        <ele>18.88</ele>
        <time>2012-05-08T14:16:43Z</time>
      </trkpt>
    </trkseg>
  </trk>
</gpx>